Time;durP1;ratioP1;P1;durP2;ratioP2;P2;SDS_P1;SDS_P2;PMS_P1;PMS_P2;Temp;Humidity;BMP_temperature;BMP_pressure;BME280_temperature;BME280_humidity;BME280_pressure;Samples;Min_cycle;Max_cycle;Signal;HPM_P1;HPM_P2
2022/04/02 00:00:42;;;;;;;4.05;1.60;;;;;;;19.19;40.94;99155.06;4897803;29;20049;-78
2022/04/02 00:03:09;;;;;;;4.28;1.58;;;;;;;19.19;40.78;99160.41;4880800;29;20063;-78
2022/04/02 00:05:37;;;;;;;3.75;1.17;;;;;;;19.19;40.87;99167.63;4895805;29;20524;-78
2022/04/02 00:08:05;;;;;;;3.05;1.17;;;;;;;19.20;40.88;99155.88;4897750;29;20053;-78
2022/04/02 00:10:32;;;;;;;2.55;1.42;;;;;;;19.19;40.85;99162.28;4897662;29;20365;-79
2022/04/02 00:13:00;;;;;;;3.13;1.55;;;;;;;19.18;40.90;99153.38;4897888;29;20373;-80
2022/04/02 00:15:27;;;;;;;3.72;1.70;;;;;;;19.18;40.43;99158.75;4906262;29;20064;-79
2022/04/02 00:17:54;;;;;;;5.53;1.60;;;;;;;19.18;40.32;99156.06;4897027;29;20059;-79
2022/04/02 00:20:22;;;;;;;2.78;1.20;;;;;;;19.18;40.34;99157.91;4898090;29;20464;-79
2022/04/02 00:25:36;;;;;;;3.10;1.23;;;;;;;19.17;40.57;99145.53;4897441;29;20056;-80
2022/04/02 00:28:03;;;;;;;2.25;1.30;;;;;;;19.16;40.65;99158.09;4896247;29;20052;-79
2022/04/02 00:30:31;;;;;;;2.70;1.40;;;;;;;19.17;40.44;99159.78;4897714;28;20056;-79
2022/04/02 00:32:58;;;;;;;3.97;1.40;;;;;;;19.16;40.52;99155.41;4898520;29;20511;-79
2022/04/02 00:35:26;;;;;;;3.28;1.77;;;;;;;19.16;40.44;99162.59;4897424;29;20067;-79
2022/04/02 00:37:53;;;;;;;2.20;1.10;;;;;;;19.16;40.60;99158.09;4897674;29;20052;-79
2022/04/02 00:40:21;;;;;;;2.35;1.15;;;;;;;19.17;40.65;99150.88;4897258;29;20056;-79
2022/04/02 00:42:48;;;;;;;2.17;1.15;;;;;;;19.16;40.62;99155.41;4895978;29;20056;-79
2022/04/02 00:45:16;;;;;;;2.03;1.30;;;;;;;19.15;40.56;99159.09;4897434;29;20056;-79
2022/04/02 00:47:43;;;;;;;2.22;1.27;;;;;;;19.15;40.51;99166.31;4896175;29;20052;-79
2022/04/02 00:50:11;;;;;;;3.17;1.42;;;;;;;19.15;40.44;99167.13;4897348;29;20052;-78
2022/04/02 00:52:39;;;;;;;3.20;1.10;;;;;;;19.14;40.41;99170.84;4908703;28;20175;-78
2022/04/02 00:55:07;;;;;;;4.32;1.50;;;;;;;19.15;40.58;99177.03;4915256;29;20483;-78
2022/04/02 00:57:35;;;;;;;3.35;1.48;;;;;;;19.14;40.60;99168.16;4897772;29;20059;-79
2022/04/02 01:00:04;;;;;;;2.10;1.20;;;;;;;19.14;40.30;99178.03;4913037;29;20064;-78
2022/04/02 01:02:31;;;;;;;2.80;1.50;;;;;;;19.15;40.19;99167.13;4899897;28;20067;-78
2022/04/02 01:05:00;;;;;;;2.17;1.00;;;;;;;19.14;40.33;99165.47;4915839;29;20049;-78
2022/04/02 01:07:32;;;;;;;2.53;1.35;;;;;;;19.13;39.33;99161.13;4898765;29;20514;-79
2022/04/02 01:10:03;;;;;;;2.50;1.30;;;;;;;19.12;39.95;99166.63;4897902;29;20135;-79
2022/04/02 01:12:33;;;;;;;4.20;1.17;;;;;;;19.12;40.07;99164.81;4912852;29;20059;-79
2022/04/02 01:15:01;;;;;;;3.15;1.35;;;;;;;19.13;40.27;99165.66;4909518;29;20048;-79
2022/04/02 01:17:40;;;;;;;2.40;0.98;;;;;;;19.12;40.11;99161.28;4893966;29;20067;-79
2022/04/02 01:20:18;;;;;;;2.67;1.30;;;;;;;19.12;40.20;99158.59;4878684;29;20083;-79
2022/04/02 01:22:47;;;;;;;3.28;1.20;;;;;;;19.13;40.16;99171.00;4879728;29;20071;-79
2022/04/02 01:25:15;;;;;;;2.35;1.20;;;;;;;19.12;40.60;99161.28;4896793;28;20055;-79
2022/04/02 01:27:47;;;;;;;;;;;;;;;19.12;40.35;99169.31;4895089;29;20053;-79
2022/04/02 01:30:16;;;;;;;2.05;1.20;;;;;;;19.12;40.22;99172.00;4879791;29;19923;-78
2022/04/02 01:32:43;;;;;;;2.55;1.20;;;;;;;19.12;40.17;99166.63;4878904;29;20064;-77
2022/04/02 01:35:14;;;;;;;2.60;1.30;;;;;;;19.12;40.02;99163.94;4895725;28;20053;-78
2022/04/02 01:37:51;;;;;;;1.83;1.23;;;;;;;19.10;40.09;99166.81;4898350;28;20480;-79
2022/04/02 01:40:23;;;;;;;2.35;1.02;;;;;;;19.10;40.17;99172.19;4894411;29;20416;-79
2022/04/02 01:42:51;;;;;;;2.33;1.50;;;;;;;19.10;40.20;99174.88;4878662;29;20067;-79
2022/04/02 01:45:19;;;;;;;2.78;1.27;;;;;;;19.10;40.14;99180.22;4878288;29;20059;-79
2022/04/02 01:47:59;;;;;;;2.05;1.00;;;;;;;19.10;40.28;99177.53;4896202;29;20052;-79
2022/04/02 01:50:37;;;;;;;1.70;1.00;;;;;;;19.10;40.33;99172.19;4895169;29;20052;-79
2022/04/02 01:53:05;;;;;;;2.00;1.20;;;;;;;19.10;40.32;99172.19;4879293;29;20053;-78
2022/04/02 01:55:33;;;;;;;2.42;1.30;;;;;;;19.10;40.29;99174.88;4896235;28;20049;-79
2022/04/02 01:58:30;;;;;;;2.97;1.20;;;;;;;19.09;40.49;99170.50;4907459;29;20045;-80
2022/04/02 02:00:59;;;;;;;2.90;1.10;;;;;;;19.09;40.31;99191.97;4880909;28;20057;-80
2022/04/02 02:03:28;;;;;;;2.78;1.50;;;;;;;19.09;40.23;99185.78;4895773;28;20052;-79
2022/04/02 02:05:56;;;;;;;2.65;1.25;;;;;;;19.09;40.31;99181.25;4896070;28;20057;-79
2022/04/02 02:08:24;;;;;;;1.73;1.10;;;;;;;19.08;40.30;99179.56;4878918;29;20053;-79
2022/04/02 02:10:57;;;;;;;2.55;1.10;;;;;;;19.07;40.37;99188.59;4896634;28;20056;-79
2022/04/02 02:13:39;;;;;;;2.58;1.13;;;;;;;19.09;40.41;99191.13;4898713;29;20060;-79
2022/04/02 02:16:14;;;;;;;2.78;1.10;;;;;;;19.08;40.47;99192.13;4895783;29;20048;-78
2022/04/02 02:18:42;;;;;;;2.55;1.33;;;;;;;19.08;40.27;99195.66;4907863;28;20056;-79
2022/04/02 02:21:09;;;;;;;2.47;1.02;;;;;;;19.08;40.04;99194.81;4912427;29;20067;-79
2022/04/02 02:23:37;;;;;;;3.00;1.40;;;;;;;19.08;40.23;99187.63;4882432;29;20067;-79
2022/04/02 02:26:05;;;;;;;3.72;1.30;;;;;;;19.07;40.18;99179.72;4897000;29;20056;-79
2022/04/02 02:28:32;;;;;;;4.63;1.30;;;;;;;19.07;40.00;99185.09;4879487;29;20140;-79
2022/04/02 02:31:00;;;;;;;2.65;1.30;;;;;;;19.07;39.95;99180.56;4895050;29;20053;-79
2022/04/02 02:36:17;;;;;;;1.92;0.93;;;;;;;19.06;40.03;99178.91;4879345;29;20053;-79
2022/04/02 02:38:59;;;;;;;3.13;1.25;;;;;;;19.06;40.04;99186.94;4880958;28;20064;-79
2022/04/02 02:41:34;;;;;;;2.20;1.15;;;;;;;19.05;40.17;99185.28;4881932;29;20087;-79
2022/04/02 02:44:06;;;;;;;2.83;1.20;;;;;;;19.05;40.04;99185.28;4899517;28;20049;-79
2022/04/02 02:46:44;;;;;;;2.83;1.13;;;;;;;19.04;40.26;99180.94;4883185;29;20060;-79
2022/04/02 02:49:20;;;;;;;3.33;1.30;;;;;;;19.04;40.07;99180.94;4897982;29;20052;-79
2022/04/02 02:51:51;;;;;;;4.47;1.40;;;;;;;19.03;40.19;99182.75;4881867;29;20052;-79
2022/04/02 02:54:23;;;;;;;2.33;1.27;;;;;;;19.03;40.00;99180.06;4882149;29;20053;-79
2022/04/02 02:56:53;;;;;;;3.00;1.30;;;;;;;19.05;40.25;99174.53;4882502;29;20063;-80
2022/04/02 02:59:21;;;;;;;2.53;1.05;;;;;;;19.02;40.21;99170.34;4899010;28;20052;-80
2022/04/02 03:01:49;;;;;;;2.78;1.15;;;;;;;19.03;39.99;99166.66;4898573;28;20064;-79
2022/04/02 03:04:19;;;;;;;2.30;1.30;;;;;;;19.03;40.16;99172.00;4882239;29;20503;-80
2022/04/02 03:06:48;;;;;;;2.55;1.08;;;;;;;19.01;40.08;99175.91;4896818;29;20065;-79
2022/04/02 03:09:18;;;;;;;2.53;0.82;;;;;;;19.02;40.24;99172.19;4881313;29;20056;-79
2022/04/02 03:11:46;;;;;;;3.63;1.20;;;;;;;19.02;39.59;99169.50;4881614;29;20057;-79
2022/04/02 03:14:15;;;;;;;3.38;1.35;;;;;;;19.01;39.98;99171.38;4881129;29;20401;-78
2022/04/02 03:16:44;;;;;;;2.03;1.08;;;;;;;19.01;39.88;99178.56;4899246;29;20067;-79
2022/04/02 03:19:16;;;;;;;2.47;1.38;;;;;;;19.02;39.79;99172.19;4952059;28;20096;-78
2022/04/02 03:21:44;;;;;;;2.42;1.05;;;;;;;19.01;39.97;99165.16;4879189;29;20060;-78
2022/04/02 03:24:13;;;;;;;2.00;1.30;;;;;;;19.01;40.18;99167.84;4863403;29;20180;-79
2022/04/02 03:26:40;;;;;;;2.83;1.35;;;;;;;19.01;40.20;99165.16;4878459;29;20065;-79
2022/04/02 03:29:28;;;;;;;2.58;0.90;;;;;;;19.00;40.15;99166.19;4877978;29;20049;-79
2022/04/02 03:31:57;;;;;;;2.35;1.00;;;;;;;18.99;40.17;99159.94;4877687;29;20064;-78
2022/04/02 03:34:29;;;;;;;1.67;1.00;;;;;;;19.00;40.02;99158.97;4878218;29;20504;-79
2022/04/02 03:36:58;;;;;;;2.25;0.90;;;;;;;19.00;40.16;99158.97;4878144;29;20480;-79
2022/04/02 03:39:26;;;;;;;2.95;1.52;;;;;;;18.99;40.14;99151.06;4878438;29;20053;-79
2022/04/02 03:41:54;;;;;;;1.90;1.00;;;;;;;18.99;39.87;99149.22;4893912;29;20064;-79
2022/04/02 03:44:22;;;;;;;1.92;0.98;;;;;;;18.99;40.07;99143.88;4959289;28;20064;-78
2022/04/02 03:47:08;;;;;;;2.35;1.25;;;;;;;19.00;40.07;99139.38;4878837;29;20056;-79
2022/04/02 03:49:46;;;;;;;2.15;1.10;;;;;;;19.00;39.99;99136.69;4878545;29;20060;-79
2022/04/02 03:52:18;;;;;;;2.13;0.90;;;;;;;18.99;40.30;99132.31;4879237;29;20056;-79
2022/04/02 03:54:50;;;;;;;2.42;1.00;;;;;;;18.99;40.11;99132.31;4914785;29;20055;-77
2022/04/02 03:57:17;;;;;;;1.50;0.90;;;;;;;18.99;40.06;99132.31;4914385;29;20479;-78
2022/04/02 03:59:46;;;;;;;4.93;0.90;;;;;;;18.98;40.06;99126.09;4916508;29;20048;-79
2022/04/02 04:02:16;;;;;;;1.20;0.70;;;;;;;18.97;40.18;99127.13;4900160;29;20067;-79
2022/04/02 04:04:44;;;;;;;2.03;1.13;;;;;;;18.98;40.16;99127.97;4898631;29;20052;-78
2022/04/02 04:07:14;;;;;;;1.80;0.90;;;;;;;18.98;40.29;99136.00;4897865;29;20048;-78
2022/04/02 04:09:42;;;;;;;2.72;1.00;;;;;;;18.98;40.29;99144.03;4898931;29;20051;-78
2022/04/02 04:12:14;;;;;;;3.03;1.40;;;;;;;18.98;40.50;99157.44;4900016;29;20060;-77
2022/04/02 04:14:45;;;;;;;5.80;1.48;;;;;;;18.97;40.35;99148.56;4914648;29;20048;-78
2022/04/02 04:17:14;;;;;;;2.40;1.00;;;;;;;18.98;40.37;99152.09;4914531;29;20055;-78
2022/04/02 04:19:45;;;;;;;2.78;1.25;;;;;;;18.97;40.41;99147.75;4883527;29;20392;-79
2022/04/02 04:22:14;;;;;;;2.67;1.30;;;;;;;18.97;40.46;99150.41;4880806;29;20063;-78
2022/04/02 04:24:42;;;;;;;1.55;0.85;;;;;;;18.96;40.62;99160.31;4880692;29;20056;-78
2022/04/02 04:27:09;;;;;;;2.53;0.98;;;;;;;18.96;40.62;99162.16;4880727;29;20057;-79
2022/04/02 04:29:41;;;;;;;2.05;0.98;;;;;;;18.97;40.63;99178.06;4880152;29;20057;-79
2022/04/02 04:32:09;;;;;;;1.80;1.13;;;;;;;18.96;40.52;99175.56;4895996;29;20059;-78
2022/04/02 04:34:39;;;;;;;1.92;1.00;;;;;;;18.96;40.74;99175.56;4897144;29;20055;-78
2022/04/02 04:37:07;;;;;;;2.17;0.82;;;;;;;18.95;40.75;99180.06;4895802;29;20052;-78
2022/04/02 04:39:37;;;;;;;2.53;1.02;;;;;;;18.96;40.54;99179.09;4880593;29;20056;-79
2022/04/02 04:42:05;;;;;;;2.70;0.88;;;;;;;18.96;40.77;99181.78;4896954;28;20056;-79
2022/04/02 04:44:35;;;;;;;1.55;0.80;;;;;;;18.96;40.75;99180.94;4897147;28;20052;-78
2022/04/02 04:47:04;;;;;;;2.08;0.80;;;;;;;18.93;40.71;99194.69;4898174;28;20076;-78
2022/04/02 04:49:37;;;;;;;3.25;1.10;;;;;;;18.95;40.63;99198.00;4880822;29;20057;-78
2022/04/02 04:52:06;;;;;;;2.38;0.80;;;;;;;18.95;40.59;99200.69;4897277;28;20076;-78
2022/04/02 04:54:36;;;;;;;2.67;0.90;;;;;;;18.95;40.38;99208.72;4897163;28;20508;-78
2022/04/02 04:57:12;;;;;;;1.67;0.90;;;;;;;18.94;40.36;99209.75;4897099;28;20064;-78
2022/04/02 04:59:44;;;;;;;1.98;1.00;;;;;;;18.93;40.28;99214.28;4880176;29;20500;-77
2022/04/02 05:02:15;;;;;;;1.55;0.73;;;;;;;18.93;40.53;99205.41;4896227;28;20249;-78
2022/04/02 05:04:43;;;;;;;1.92;0.88;;;;;;;18.93;40.44;99203.56;4879070;29;20061;-78
2022/04/02 05:07:12;;;;;;;1.50;0.90;;;;;;;18.93;40.55;99202.72;4896464;28;20053;-78
2022/04/02 05:09:42;;;;;;;1.80;1.00;;;;;;;18.92;40.53;99196.53;4879522;29;20056;-78
2022/04/02 05:12:11;;;;;;;1.20;0.77;;;;;;;18.92;40.39;99203.69;4896727;29;20468;-78
2022/04/02 05:14:42;;;;;;;1.40;0.80;;;;;;;18.92;40.44;99201.03;4960899;28;20057;-79
2022/04/02 05:17:17;;;;;;;2.35;0.77;;;;;;;18.92;40.63;99195.66;4896018;29;20053;-79
2022/04/02 05:19:46;;;;;;;1.50;0.98;;;;;;;18.92;40.38;99201.03;4895034;29;20063;-78
2022/04/02 05:22:15;;;;;;;1.33;0.80;;;;;;;18.91;40.46;99197.50;4879646;29;20061;-78
2022/04/02 05:24:47;;;;;;;1.10;0.57;;;;;;;18.91;40.46;99192.13;4880172;29;20068;-78
2022/04/02 05:27:15;;;;;;;1.75;0.90;;;;;;;18.91;40.20;99202.03;4879646;29;20065;-78
2022/04/02 05:29:44;;;;;;;1.30;0.82;;;;;;;18.91;40.45;99205.56;4864579;29;20060;-78
2022/04/02 05:32:12;;;;;;;1.30;0.80;;;;;;;18.91;40.19;99212.75;4880620;29;20048;-78
2022/04/02 05:34:40;;;;;;;3.05;0.90;;;;;;;18.89;40.49;99202.22;4896825;29;20049;-78
2022/04/02 05:37:09;;;;;;;1.55;0.90;;;;;;;18.89;40.31;99199.53;4879802;29;20057;-78
2022/04/02 05:39:36;;;;;;;1.60;0.90;;;;;;;18.89;40.28;99210.25;4880013;29;20412;-78
2022/04/02 05:42:07;;;;;;;2.40;0.70;;;;;;;18.89;40.16;99209.44;4879730;29;20057;-78
2022/04/02 05:44:34;;;;;;;3.30;0.85;;;;;;;18.89;40.46;99218.31;4879929;29;20052;-79
2022/04/02 05:47:02;;;;;;;1.30;0.70;;;;;;;18.89;40.14;99220.97;4895386;29;20053;-79
2022/04/02 05:49:46;;;;;;;1.92;1.00;;;;;;;18.88;40.27;99227.38;4896766;29;20063;-79
2022/04/02 05:52:13;;;;;;;1.77;1.23;;;;;;;18.88;40.28;99231.84;4895227;29;20534;-79
2022/04/02 05:54:42;;;;;;;1.90;0.73;;;;;;;18.88;40.46;99239.91;4895453;29;20203;-79
2022/04/02 05:57:10;;;;;;;1.00;0.60;;;;;;;18.88;40.38;99226.50;4896544;29;20408;-78
2022/04/02 05:59:39;;;;;;;1.70;0.85;;;;;;;18.89;40.32;99222.84;4896313;29;20059;-79
2022/04/02 06:02:08;;;;;;;1.42;0.75;;;;;;;18.88;40.32;99222.00;4896072;29;20064;-79
2022/04/02 06:04:36;;;;;;;2.03;0.88;;;;;;;18.88;40.19;99222.00;4896106;29;20060;-78
2022/04/02 06:07:03;;;;;;;1.67;0.70;;;;;;;18.87;40.01;99214.94;4879743;28;20048;-78
2022/04/02 06:09:30;;;;;;;2.85;1.15;;;;;;;18.89;40.05;99222.84;4895277;29;20047;-79
2022/04/02 06:11:58;;;;;;;1.38;0.90;;;;;;;18.89;40.03;99225.50;4894677;29;20048;-79
2022/04/02 06:14:25;;;;;;;1.33;0.80;;;;;;;18.89;40.27;99223.66;4879969;29;20064;-79
2022/04/02 06:16:52;;;;;;;1.25;0.80;;;;;;;18.89;39.93;99222.84;4897982;29;20049;-79
2022/04/02 06:19:20;;;;;;;2.05;0.93;;;;;;;18.91;40.19;99231.53;4899455;29;20075;-79
2022/04/02 06:21:47;;;;;;;2.10;0.90;;;;;;;18.91;39.97;99232.38;4906382;29;20045;-79
2022/04/02 06:24:15;;;;;;;1.65;0.80;;;;;;;18.91;39.81;99234.22;4900454;29;20060;-80
2022/04/02 06:26:42;;;;;;;1.77;0.80;;;;;;;18.92;39.63;99238.56;4900612;29;20053;-79
2022/04/02 06:29:09;;;;;;;1.60;1.08;;;;;;;18.92;39.47;99241.25;4965720;28;20064;-79
2022/04/02 06:31:39;;;;;;;2.03;1.13;;;;;;;18.92;39.32;99243.94;4899650;29;20499;-79
2022/04/02 06:34:06;;;;;;;1.77;0.93;;;;;;;18.93;39.47;99248.31;4897434;29;20170;-79
2022/04/02 06:36:34;;;;;;;2.10;0.80;;;;;;;18.93;39.20;99249.13;4880900;29;20057;-80
2022/04/02 06:39:01;;;;;;;2.03;1.00;;;;;;;18.93;39.17;99243.78;4896507;29;20412;-80
2022/04/02 06:41:29;;;;;;;1.05;0.70;;;;;;;18.94;39.17;99250.81;4898145;29;20059;-80
2022/04/02 06:43:56;;;;;;;2.17;1.00;;;;;;;18.94;39.27;99247.28;4899331;28;20056;-81
2022/04/02 06:46:23;;;;;;;2.72;1.38;;;;;;;18.94;39.36;99258.03;4898948;29;20064;-80
2022/04/02 06:48:52;;;;;;;1.52;0.80;;;;;;;18.94;39.49;99258.84;4897806;29;20464;-80
2022/04/02 06:51:20;;;;;;;1.35;0.80;;;;;;;18.94;39.62;99256.16;4898088;29;20234;-79
2022/04/02 06:53:47;;;;;;;1.38;0.82;;;;;;;18.94;39.59;99252.66;4899246;29;20044;-79
2022/04/02 06:56:15;;;;;;;2.67;1.10;;;;;;;18.94;39.74;99258.03;4898709;29;20049;-79
2022/04/02 06:58:42;;;;;;;1.77;0.90;;;;;;;18.93;39.72;99257.19;4897838;29;20068;-78
2022/04/02 07:01:10;;;;;;;3.47;1.10;;;;;;;18.94;39.79;99261.53;4898551;29;20060;-78
2022/04/02 07:03:37;;;;;;;2.10;0.90;;;;;;;18.94;39.91;99260.69;4897857;29;20495;-79
2022/04/02 07:06:05;;;;;;;2.08;0.93;;;;;;;18.93;39.82;99259.88;4899311;29;20044;-79
2022/04/02 07:08:35;;;;;;;1.88;0.90;;;;;;;18.95;39.74;99273.94;4898543;29;20064;-78
2022/04/02 07:11:04;;;;;;;2.15;0.93;;;;;;;18.95;39.60;99275.78;4897264;29;20439;-79
2022/04/02 07:13:31;;;;;;;2.50;0.88;;;;;;;18.96;39.38;99269.44;4898609;29;20052;-78
2022/04/02 07:16:03;;;;;;;1.95;1.13;;;;;;;18.97;39.63;99273.78;4898284;29;20059;-79
2022/04/02 07:18:33;;;;;;;1.60;0.88;;;;;;;18.95;39.62;99268.56;4897131;29;20052;-79
2022/04/02 07:21:02;;;;;;;1.80;0.90;;;;;;;18.97;39.48;99263.06;4899524;29;20041;-79
2022/04/02 07:23:29;;;;;;;2.33;1.00;;;;;;;18.98;39.36;99270.09;4898826;28;20053;-79
2022/04/02 07:25:57;;;;;;;1.90;1.00;;;;;;;18.98;39.14;99267.41;4878034;29;20068;-79
2022/04/02 07:28:27;;;;;;;1.52;0.82;;;;;;;18.97;39.33;99263.88;4880733;29;20053;-79
2022/04/02 07:30:55;;;;;;;2.20;1.05;;;;;;;18.98;38.92;99270.09;4879773;29;20052;-79
2022/04/02 07:33:25;;;;;;;2.75;1.02;;;;;;;18.99;39.00;99274.44;4878715;28;20060;-79
2022/04/02 07:36:01;;;;;;;2.35;1.00;;;;;;;18.98;39.15;99283.50;4879394;29;20049;-79
2022/04/02 07:38:38;;;;;;;2.25;1.23;;;;;;;18.99;39.18;99280.63;4878978;29;20109;-80
2022/04/02 07:41:33;;;;;;;1.60;0.90;;;;;;;19.00;39.12;99284.19;4877787;29;20060;-79
2022/04/02 07:44:25;;;;;;;1.75;1.05;;;;;;;19.01;39.54;99288.53;4898426;29;20060;-79
2022/04/02 07:46:56;;;;;;;1.38;0.90;;;;;;;19.01;39.37;99286.69;4897213;29;20060;-79
2022/04/02 07:49:27;;;;;;;2.08;1.10;;;;;;;19.01;39.19;99289.38;4897492;29;20060;-79
2022/04/02 07:51:56;;;;;;;1.52;0.80;;;;;;;19.02;39.32;99284.84;4897471;28;20079;-79
2022/04/02 07:54:27;;;;;;;1.95;1.10;;;;;;;19.02;39.12;99288.34;4897897;29;20057;-79
2022/04/02 07:57:01;;;;;;;1.77;0.80;;;;;;;19.02;39.04;99288.34;4898390;29;20052;-79
2022/04/02 07:59:34;;;;;;;1.63;0.90;;;;;;;19.02;39.20;99285.66;4881285;29;20052;-79
2022/04/02 08:02:36;;;;;;;1.98;0.90;;;;;;;19.03;39.18;99298.06;4881285;28;20052;-78
2022/04/02 08:05:02;;;;;;;1.38;0.80;;;;;;;19.05;38.99;99299.78;4897553;29;20056;-79
2022/04/02 08:07:31;;;;;;;3.38;0.90;;;;;;;19.05;39.14;99307.81;4883789;29;20053;-79
2022/04/02 08:10:00;;;;;;;1.98;0.93;;;;;;;19.05;39.20;99310.50;4897134;29;20053;-79
2022/04/02 08:12:28;;;;;;;1.60;1.00;;;;;;;19.04;39.38;99315.03;4882455;28;20059;-79
2022/04/02 08:14:56;;;;;;;2.30;0.95;;;;;;;19.05;39.09;99314.00;4897819;29;20055;-80
2022/04/02 08:17:23;;;;;;;2.42;1.20;;;;;;;19.06;39.23;99318.38;4896538;29;20048;-80
2022/04/02 08:19:57;;;;;;;2.13;0.90;;;;;;;19.07;39.04;99320.03;4896231;29;20515;-80
2022/04/02 08:22:24;;;;;;;2.47;1.08;;;;;;;19.07;39.18;99325.41;4897137;29;20056;-79
2022/04/02 08:24:52;;;;;;;2.30;0.90;;;;;;;19.08;39.21;99323.56;4894004;29;20047;-79
2022/04/02 08:27:19;;;;;;;2.00;1.00;;;;;;;19.07;39.36;99330.75;4896425;29;20464;-78
2022/04/02 08:30:01;;;;;;;1.95;1.02;;;;;;;19.08;39.66;99329.78;4895587;29;20156;-78
2022/04/02 08:32:46;;;;;;;1.58;0.77;;;;;;;19.08;39.22;99329.78;4894346;29;20052;-79
2022/04/02 08:35:20;;;;;;;1.92;0.90;;;;;;;19.09;39.30;99339.50;4896202;29;20049;-79
2022/04/02 08:38:12;;;;;;;1.80;0.85;;;;;;;19.09;39.23;99342.19;4894934;29;20460;-80
2022/04/02 08:40:55;;;;;;;1.80;0.98;;;;;;;19.10;38.84;99343.84;4895977;29;20076;-79
2022/04/02 08:43:34;;;;;;;1.55;0.90;;;;;;;19.08;39.09;99340.50;4896503;29;20354;-79
2022/04/02 08:46:21;;;;;;;2.95;0.90;;;;;;;19.10;38.85;99349.22;4880052;29;20072;-80
2022/04/02 08:48:58;;;;;;;2.55;1.10;;;;;;;19.05;35.26;99351.56;4896782;29;20056;-81
2022/04/02 08:51:44;;;;;;;3.13;1.00;;;;;;;19.00;34.11;99349.38;4896978;29;20472;-80
2022/04/02 08:54:24;;;;;;;2.33;1.10;;;;;;;18.99;33.83;99346.84;4897105;29;20060;-81
2022/04/02 08:57:13;;;;;;;2.92;1.30;;;;;;;19.00;36.36;99345.88;4896944;29;20107;-80
2022/04/02 08:59:41;;;;;;;2.97;1.05;;;;;;;19.02;35.67;99342.00;4895840;29;20516;-81
2022/04/02 09:02:46;;;;;;;2.40;1.20;;;;;;;19.02;33.61;99335.78;4896580;29;20060;-80
2022/04/02 09:05:32;;;;;;;2.95;1.10;;;;;;;19.02;33.59;99338.47;4878452;29;20076;-78
2022/04/02 09:08:26;;;;;;;3.55;1.20;;;;;;;19.01;33.06;99343.00;4895467;29;20049;-80
2022/04/02 09:10:53;;;;;;;2.22;1.02;;;;;;;18.97;31.96;99349.72;4895782;29;20514;-80
2022/04/02 09:13:50;;;;;;;3.15;1.45;;;;;;;18.95;33.89;99343.66;4891223;29;20057;-80
2022/04/02 09:16:46;;;;;;;2.65;1.55;;;;;;;18.96;32.44;99349.88;4876954;29;20115;-80
2022/04/02 09:19:28;;;;;;;2.50;1.20;;;;;;;18.96;31.79;99347.19;4891493;29;20049;-81
2022/04/02 09:22:17;;;;;;;3.05;1.17;;;;;;;18.94;31.64;99357.25;4891388;29;20064;-81
2022/04/02 09:24:53;;;;;;;4.88;1.35;;;;;;;18.91;32.14;99350.34;4876663;29;20060;-81
2022/04/02 09:28:05;;;;;;;4.10;1.50;;;;;;;18.83;33.08;99344.97;4877539;29;20056;-79
2022/04/02 09:31:27;;;;;;;3.80;1.30;;;;;;;18.82;33.77;99354.03;4972576;28;20438;-81
2022/04/02 09:34:24;;;;;;;3.47;1.58;;;;;;;18.83;34.25;99354.88;4915292;29;20060;-81
2022/04/02 09:37:12;;;;;;;3.88;1.35;;;;;;;18.85;33.77;99360.91;4915562;29;20067;-80
2022/04/02 09:40:06;;;;;;;2.72;1.45;;;;;;;18.84;33.64;99349.34;4915907;29;20079;-81
2022/04/02 09:42:43;;;;;;;5.80;1.95;;;;;;;18.87;34.13;99357.06;4914990;29;20068;-81
2022/04/02 09:45:14;;;;;;;4.97;1.42;;;;;;;18.88;33.47;99355.19;4915181;29;20056;-82
2022/04/02 09:47:48;;;;;;;6.18;1.30;;;;;;;18.91;34.11;99357.56;4915139;29;20052;-79
2022/04/02 09:50:19;;;;;;;4.25;1.40;;;;;;;18.90;33.59;99358.56;4917606;29;20467;-81
2022/04/02 09:52:52;;;;;;;5.55;1.45;;;;;;;18.93;34.05;99359.09;4920220;29;20059;-80
2022/04/02 09:55:22;;;;;;;7.15;1.38;;;;;;;18.95;34.44;99361.59;4903305;29;20064;-78
2022/04/02 09:58:17;;;;;;;4.15;1.40;;;;;;;18.97;34.36;99364.97;4919339;29;20443;-79
2022/04/02 10:01:02;;;;;;;3.88;1.10;;;;;;;18.98;33.38;99362.09;4919167;29;20060;-78
2022/04/02 10:03:38;;;;;;;3.97;1.25;;;;;;;19.00;33.35;99359.28;4904514;29;20048;-80
2022/04/02 10:06:20;;;;;;;3.58;1.33;;;;;;;19.02;35.00;99357.25;4903978;29;20078;-79
2022/04/02 10:09:00;;;;;;;2.90;1.27;;;;;;;19.02;34.26;99357.25;4852013;29;20521;-77
2022/04/02 10:11:29;;;;;;;2.30;1.08;;;;;;;19.04;35.50;99355.25;4876908;29;20068;-76
2022/04/02 10:13:59;;;;;;;3.75;1.10;;;;;;;19.07;35.92;99362.13;4872944;29;20414;-77
2022/04/02 10:16:27;;;;;;;4.00;1.20;;;;;;;19.07;35.88;99349.53;4882180;29;20049;-76
2022/04/02 10:18:57;;;;;;;3.65;1.45;;;;;;;19.08;36.29;99356.59;4881682;29;20059;-77
2022/04/02 10:21:24;;;;;;;7.53;1.40;;;;;;;19.10;36.65;99353.75;4898425;29;20049;-77
2022/04/02 10:23:54;;;;;;;3.47;1.50;;;;;;;19.10;36.63;99353.75;4897317;29;20045;-76
2022/04/02 10:26:22;;;;;;;3.78;1.02;;;;;;;19.11;36.33;99363.47;4895839;29;20385;-76
2022/04/02 10:29:09;;;;;;;4.25;1.30;;;;;;;19.11;36.08;99350.88;4897651;29;20063;-77
2022/04/02 10:32:01;;;;;;;4.88;1.42;;;;;;;19.11;36.99;99355.41;4898412;29;20511;-76
2022/04/02 10:34:35;;;;;;;6.55;1.50;;;;;;;19.12;36.89;99357.94;4898001;29;20056;-76
2022/04/02 10:37:11;;;;;;;2.50;1.17;;;;;;;19.12;36.43;99349.91;4898598;29;20412;-77
2022/04/02 10:39:44;;;;;;;5.85;1.00;;;;;;;19.12;36.96;99357.94;4881970;29;20053;-77
2022/04/02 10:42:17;;;;;;;5.93;1.23;;;;;;;19.12;36.65;99355.28;4898280;29;20053;-77
2022/04/02 10:45:02;;;;;;;2.75;1.17;;;;;;;19.13;36.55;99362.31;4898264;29;20051;-77
2022/04/02 10:47:30;;;;;;;3.95;1.45;;;;;;;19.13;36.68;99364.97;4897808;29;20508;-75
2022/04/02 10:50:06;;;;;;;2.88;1.20;;;;;;;19.13;36.77;99364.97;4897845;29;20059;-76
2022/04/02 10:52:34;;;;;;;3.55;1.00;;;;;;;19.14;36.79;99368.50;4909330;29;20071;-77
2022/04/02 10:55:03;;;;;;;3.92;1.20;;;;;;;19.14;37.31;99372.03;4916659;29;20434;-77
2022/04/02 10:57:35;;;;;;;3.72;1.10;;;;;;;19.13;36.87;99367.66;4917301;29;20059;-76
2022/04/02 11:00:09;;;;;;;2.83;1.55;;;;;;;19.14;36.52;99363.97;4883595;29;20423;-76
2022/04/02 11:02:46;;;;;;;3.95;1.30;;;;;;;19.14;36.58;99363.97;4915976;29;20052;-77
2022/04/02 11:05:15;;;;;;;4.13;1.20;;;;;;;19.14;36.55;99371.19;4916688;29;20514;-77
2022/04/02 11:07:45;;;;;;;2.53;1.20;;;;;;;19.13;36.42;99375.72;4916293;29;20048;-77
2022/04/02 11:10:18;;;;;;;4.45;1.00;;;;;;;19.14;36.72;99379.22;4916435;29;20059;-77
2022/04/02 11:12:48;;;;;;;;;;;;;;;19.13;36.29;99378.41;4916923;29;20056;-77
2022/04/02 11:15:24;;;;;;;1.88;1.00;;;;;;;19.14;36.04;99371.19;4898784;29;19930;-77
2022/04/02 11:18:02;;;;;;;5.68;1.25;;;;;;;19.13;37.25;99375.72;4916702;29;20075;-76
2022/04/02 11:20:31;;;;;;;3.33;1.35;;;;;;;19.14;36.73;99374.69;4899386;29;20052;-77
2022/04/02 11:23:09;;;;;;;5.32;1.40;;;;;;;19.14;36.84;99374.69;4916096;29;20403;-76
2022/04/02 11:25:43;;;;;;;3.83;1.10;;;;;;;19.15;37.45;99372.84;4906669;29;20482;-76
2022/04/02 11:28:20;;;;;;;2.42;1.17;;;;;;;19.16;37.40;99374.53;4896760;29;20056;-77
2022/04/02 11:30:49;;;;;;;3.08;1.10;;;;;;;19.17;37.78;99381.59;4897344;29;20079;-77
2022/04/02 11:33:19;;;;;;;4.28;1.20;;;;;;;19.17;37.78;99374.38;4897340;29;20064;-76
2022/04/02 11:35:55;;;;;;;3.78;1.25;;;;;;;19.18;37.92;99386.78;4897314;29;20052;-77
2022/04/02 11:38:23;;;;;;;5.60;1.35;;;;;;;19.18;38.12;99373.38;4896764;29;20060;-77
2022/04/02 11:41:22;;;;;;;6.03;1.63;;;;;;;19.19;38.49;99371.53;4896640;29;20048;-77
2022/04/02 11:44:02;;;;;;;2.22;0.85;;;;;;;19.20;38.52;99374.06;4896959;29;20404;-77
2022/04/02 11:46:51;;;;;;;3.72;1.10;;;;;;;19.21;38.53;99380.25;4896918;29;20057;-76
2022/04/02 11:49:33;;;;;;;2.88;1.15;;;;;;;19.22;38.31;99389.97;4896560;29;20063;-77
2022/04/02 11:52:10;;;;;;;3.63;1.20;;;;;;;19.22;38.41;99384.59;4903710;29;20052;-77
2022/04/02 11:54:41;;;;;;;1.80;0.90;;;;;;;19.22;38.55;99380.06;4915649;29;20058;-77
2022/04/02 11:57:11;;;;;;;3.60;1.10;;;;;;;19.22;38.45;99377.41;4915604;29;20083;-76
2022/04/02 11:59:51;;;;;;;3.13;1.30;;;;;;;19.23;38.43;99373.69;4916376;29;20048;-77
2022/04/02 12:02:39;;;;;;;2.08;0.95;;;;;;;19.23;38.08;99371.00;4915506;29;20052;-76
2022/04/02 12:05:10;;;;;;;3.03;1.33;;;;;;;19.20;35.81;99382.09;4898316;29;20067;-77